Time;durP1;ratioP1;P1;durP2;ratioP2;P2;SDS_P1;SDS_P2;PMS_P1;PMS_P2;Temp;Humidity;BMP_temperature;BMP_pressure;BME280_temperature;BME280_humidity;BME280_pressure;Samples;Min_cycle;Max_cycle;Signal;HPM_P1;HPM_P2
2023/07/04 00:01:56;;;;;;;6.05;2.67;;;;;;;13.26;100.00;101034.59;4993861;28;20043;-76
2023/07/04 00:04:23;;;;;;;7.80;2.95;;;;;;;13.26;100.00;101043.34;4994183;28;20524;-76
2023/07/04 00:06:50;;;;;;;9.93;3.08;;;;;;;13.26;100.00;101038.00;4993464;28;20614;-76
2023/07/04 00:09:18;;;;;;;5.45;2.78;;;;;;;13.23;100.00;101036.25;4993912;28;20066;-76
2023/07/04 00:11:44;;;;;;;8.35;3.80;;;;;;;13.24;100.00;101034.31;4993697;28;20054;-76
2023/07/04 00:14:11;;;;;;;10.00;3.13;;;;;;;13.21;100.00;101035.94;4993750;28;20051;-76
2023/07/04 00:16:38;;;;;;;7.80;2.90;;;;;;;13.20;100.00;101034.47;4993581;28;20082;-76
2023/07/04 00:19:06;;;;;;;5.47;2.38;;;;;;;13.21;100.00;101037.88;4975749;28;20053;-76
2023/07/04 00:21:33;;;;;;;5.03;2.65;;;;;;;13.20;100.00;101031.78;4993265;28;20050;-76
2023/07/04 00:23:59;;;;;;;10.38;2.97;;;;;;;13.21;100.00;101019.91;4993633;28;20078;-76
2023/07/04 00:26:26;;;;;;;4.88;2.65;;;;;;;13.20;100.00;101029.13;4993708;28;20074;-76
2023/07/04 00:28:54;;;;;;;10.05;2.78;;;;;;;13.19;100.00;101032.25;4993543;28;20051;-76
2023/07/04 00:31:23;;;;;;;5.95;2.63;;;;;;;13.20;100.00;101045.16;4975628;28;20153;-76
2023/07/04 00:33:51;;;;;;;7.35;2.92;;;;;;;13.18;100.00;101046.81;4993531;28;20526;-76
2023/07/04 00:36:19;;;;;;;8.48;2.67;;;;;;;13.17;100.00;101053.34;4976070;28;20137;-76
2023/07/04 00:38:56;;;;;;;5.78;2.40;;;;;;;13.18;100.00;101058.25;4976034;28;20133;-76
2023/07/04 00:41:28;;;;;;;7.93;2.60;;;;;;;13.20;100.00;101047.09;4993703;28;20043;-76
2023/07/04 00:44:07;;;;;;;10.75;3.40;;;;;;;13.18;100.00;101049.50;4993483;28;20046;-76
2023/07/04 00:46:38;;;;;;;4.32;2.85;;;;;;;13.19;100.00;101053.66;4975570;28;20102;-76
2023/07/04 00:49:23;;;;;;;;;;;;;;;13.17;100.00;101062.13;4993386;28;20137;-76
2023/07/04 00:52:04;;;;;;;8.07;3.17;;;;;;;13.15;100.00;101067.13;4993503;28;19926;-76
2023/07/04 00:54:46;;;;;;;8.95;3.28;;;;;;;13.15;100.00;101064.47;4993267;28;20051;-76
2023/07/04 00:57:14;;;;;;;3.65;2.50;;;;;;;13.12;100.00;101064.63;4975733;28;20051;-76
2023/07/04 00:59:44;;;;;;;5.95;2.58;;;;;;;13.10;100.00;101070.41;4992596;28;20123;-76
2023/07/04 01:02:15;;;;;;;9.48;2.80;;;;;;;13.13;100.00;101074.13;4993564;28;20039;-76
2023/07/04 01:04:43;;;;;;;8.55;2.72;;;;;;;13.12;100.00;101052.00;4992854;28;20070;-76
2023/07/04 01:07:31;;;;;;;11.25;2.97;;;;;;;13.13;100.00;101064.16;4993187;28;20051;-76
2023/07/04 01:10:10;;;;;;;8.60;2.63;;;;;;;13.10;100.00;101077.69;4975387;28;20496;-76
2023/07/04 01:12:38;;;;;;;6.35;2.50;;;;;;;13.08;100.00;101070.13;4973550;28;20055;-76
2023/07/04 01:15:06;;;;;;;6.68;2.60;;;;;;;13.09;100.00;101076.22;4973077;28;20049;-76
2023/07/04 01:17:33;;;;;;;8.05;2.28;;;;;;;13.10;100.00;101075.75;4974308;28;20138;-76
2023/07/04 01:20:01;;;;;;;3.55;2.33;;;;;;;13.10;100.00;101080.38;4975235;28;20102;-76
2023/07/04 01:22:47;;;;;;;5.68;2.28;;;;;;;13.10;100.00;101069.66;4992415;28;20043;-75
2023/07/04 01:26:08;;;;;;;7.78;2.28;;;;;;;13.08;100.00;101074.72;4975477;28;20431;-74
2023/07/04 01:28:34;;;;;;;7.80;2.05;;;;;;;13.08;100.00;101070.13;4951625;28;20491;-75
2023/07/04 01:31:01;;;;;;;6.18;2.17;;;;;;;13.06;100.00;101066.41;4934666;28;20146;-75
2023/07/04 01:33:28;;;;;;;6.60;1.92;;;;;;;13.06;100.00;101059.13;4951003;28;20124;-75
2023/07/04 01:35:54;;;;;;;4.63;1.90;;;;;;;13.08;100.00;101064.03;4950610;28;20063;-75
2023/07/04 01:38:21;;;;;;;6.68;2.50;;;;;;;13.08;100.00;101059.44;4951538;28;20735;-75
2023/07/04 01:40:47;;;;;;;3.72;2.00;;;;;;;13.09;100.00;101055.56;4951279;28;20048;-75
2023/07/04 01:43:14;;;;;;;6.78;2.28;;;;;;;13.10;100.00;101051.69;4935541;28;20892;-75
2023/07/04 01:45:45;;;;;;;4.45;1.75;;;;;;;13.10;100.00;101056.31;4951237;28;20043;-75
2023/07/04 01:48:12;;;;;;;4.23;1.90;;;;;;;13.08;100.00;101054.09;4935104;28;20134;-75
2023/07/04 01:50:39;;;;;;;8.30;1.90;;;;;;;13.09;100.00;101063.59;4918945;28;20058;-75
2023/07/04 01:53:05;;;;;;;4.82;1.88;;;;;;;13.08;100.00;101062.09;4951295;28;20052;-75
2023/07/04 01:55:32;;;;;;;6.47;2.20;;;;;;;13.05;100.00;101060.31;4950764;28;20072;-75
2023/07/04 01:57:59;;;;;;;3.05;1.95;;;;;;;13.04;100.00;101061.50;4951054;28;20067;-75
2023/07/04 02:00:25;;;;;;;4.70;2.40;;;;;;;13.02;100.00;101069.22;4950571;28;20734;-75
2023/07/04 02:02:55;;;;;;;11.65;2.30;;;;;;;12.99;100.00;101070.88;4980471;28;20860;-75
2023/07/04 02:05:21;;;;;;;3.90;2.15;;;;;;;12.94;100.00;101063.44;4992130;28;20058;-75
2023/07/04 02:07:48;;;;;;;5.32;1.92;;;;;;;12.93;100.00;101063.91;4974254;28;20078;-75
2023/07/04 02:10:15;;;;;;;3.53;1.95;;;;;;;12.89;100.00;101065.97;4992461;28;20047;-75
2023/07/04 02:12:42;;;;;;;3.33;2.13;;;;;;;12.85;100.00;101068.78;4973880;28;20051;-75
2023/07/04 02:15:09;;;;;;;6.72;2.13;;;;;;;12.82;100.00;101064.34;4992022;28;20053;-75
2023/07/04 02:17:35;;;;;;;5.45;1.98;;;;;;;12.78;100.00;101060.38;4973543;28;20504;-75
2023/07/04 02:20:03;;;;;;;10.13;2.05;;;;;;;12.76;100.00;101058.13;4992131;28;20117;-75
2023/07/04 02:22:30;;;;;;;8.82;2.53;;;;;;;12.72;100.00;101060.22;4992056;28;20042;-75
2023/07/04 02:24:57;;;;;;;8.35;2.42;;;;;;;12.72;100.00;101064.81;4992049;28;20071;-75
2023/07/04 02:27:23;;;;;;;2.92;2.60;;;;;;;12.69;100.00;101063.78;4974472;28;20070;-75
2023/07/04 02:29:50;;;;;;;7.03;2.60;;;;;;;12.65;100.00;101063.19;4991839;28;20071;-75
2023/07/04 02:32:17;;;;;;;4.95;3.22;;;;;;;12.66;100.00;101065.41;4991883;28;20053;-75
2023/07/04 02:34:44;;;;;;;3.55;2.17;;;;;;;12.66;100.00;101056.66;4992403;28;20050;-75
2023/07/04 02:37:14;;;;;;;7.00;2.75;;;;;;;12.63;100.00;101057.53;4973939;28;20091;-75
2023/07/04 02:39:40;;;;;;;5.28;2.20;;;;;;;12.61;100.00;101062.59;4974233;28;20109;-75
2023/07/04 02:42:07;;;;;;;5.72;3.13;;;;;;;12.58;100.00;101066.13;4974145;28;20383;-75
2023/07/04 02:44:34;;;;;;;5.18;2.53;;;;;;;12.57;100.00;101070.00;4990752;28;20123;-75
2023/07/04 02:47:04;;;;;;;4.18;1.95;;;;;;;12.53;100.00;101070.13;4991411;28;20081;-74
2023/07/04 02:49:35;;;;;;;6.63;2.30;;;;;;;12.52;100.00;101071.31;4973975;28;20062;-74
2023/07/04 02:52:04;;;;;;;4.90;2.22;;;;;;;12.50;100.00;101070.28;4973769;28;20109;-75
2023/07/04 02:54:31;;;;;;;5.25;2.17;;;;;;;12.47;100.00;101065.81;4991625;28;20035;-75
2023/07/04 02:56:59;;;;;;;5.20;2.22;;;;;;;12.48;100.00;101065.38;4991292;28;20047;-75
2023/07/04 02:59:25;;;;;;;2.30;1.70;;;;;;;12.47;100.00;101065.81;4973403;28;20047;-75
2023/07/04 03:01:53;;;;;;;1.80;1.70;;;;;;;12.47;100.00;101068.50;4991477;28;20047;-75
2023/07/04 03:04:21;;;;;;;5.35;1.90;;;;;;;12.46;100.00;101064.34;4991677;28;20039;-74
2023/07/04 03:06:49;;;;;;;3.88;2.15;;;;;;;12.42;100.00;101066.41;4989867;28;20051;-75
2023/07/04 03:09:15;;;;;;;8.13;2.00;;;;;;;12.40;100.00;101068.78;4974163;28;20452;-74
2023/07/04 03:11:42;;;;;;;3.58;1.98;;;;;;;12.37;100.00;101059.03;4972964;28;20448;-74
2023/07/04 03:14:09;;;;;;;2.72;1.60;;;;;;;12.33;100.00;101065.25;4973116;28;20066;-74
2023/07/04 03:16:37;;;;;;;7.00;2.05;;;;;;;12.31;100.00;101058.88;4973639;28;20114;-74
2023/07/04 03:19:05;;;;;;;4.20;2.13;;;;;;;12.33;100.00;101072.50;4973773;28;20437;-74
2023/07/04 03:21:31;;;;;;;4.25;2.00;;;;;;;12.31;100.00;101059.59;4973445;28;20596;-73
2023/07/04 03:24:00;;;;;;;3.60;1.70;;;;;;;12.28;100.00;101070.41;4976498;28;20051;-74
2023/07/04 03:26:27;;;;;;;4.60;2.10;;;;;;;12.27;100.00;101072.34;4976519;28;20051;-74
2023/07/04 03:28:54;;;;;;;4.45;2.30;;;;;;;12.26;100.00;101072.78;4976162;28;20519;-75
2023/07/04 03:31:22;;;;;;;6.78;1.90;;;;;;;12.25;100.00;101068.63;4976316;28;20433;-74
2023/07/04 03:33:50;;;;;;;2.28;1.75;;;;;;;12.26;100.00;101083.47;4976546;28;20050;-74
2023/07/04 03:36:16;;;;;;;4.75;1.80;;;;;;;12.26;100.00;101086.88;4976671;28;20147;-74
2023/07/04 03:38:43;;;;;;;9.98;1.95;;;;;;;12.24;100.00;101081.25;4994088;28;20634;-74
2023/07/04 03:41:10;;;;;;;6.03;1.88;;;;;;;12.23;100.00;101077.09;4993768;28;20075;-75
2023/07/04 03:43:36;;;;;;;4.25;2.22;;;;;;;12.24;100.00;101073.22;4993591;28;20058;-74
2023/07/04 03:46:04;;;;;;;10.88;2.95;;;;;;;12.22;100.00;101072.94;4994241;28;20053;-75
2023/07/04 03:48:31;;;;;;;4.90;2.30;;;;;;;12.21;100.00;101076.78;4994211;28;20086;-74
2023/07/04 03:50:58;;;;;;;7.72;2.08;;;;;;;12.20;100.00;101072.63;4992458;28;20572;-74
2023/07/04 03:53:25;;;;;;;6.53;1.92;;;;;;;12.21;100.00;101078.72;4994069;28;20045;-76
2023/07/04 03:55:52;;;;;;;6.32;2.05;;;;;;;12.24;100.00;101086.56;4994063;28;20051;-76
2023/07/04 03:58:18;;;;;;;5.57;2.45;;;;;;;12.25;100.00;101084.66;4993670;28;20118;-76
2023/07/04 04:00:50;;;;;;;3.95;2.05;;;;;;;12.27;100.00;101088.38;4994252;28;20044;-77
2023/07/04 04:03:17;;;;;;;;;;;;;;;12.30;100.00;101084.81;4994983;28;20050;-76
2023/07/04 04:05:44;;;;;;;5.93;2.28;;;;;;;12.30;100.00;101089.41;4993866;28;20409;-76
2023/07/04 04:08:10;;;;;;;5.97;1.92;;;;;;;12.28;100.00;101086.44;4993675;28;20057;-76
2023/07/04 04:10:37;;;;;;;5.55;2.70;;;;;;;12.30;100.00;101087.47;4993499;28;20065;-76
2023/07/04 04:13:04;;;;;;;4.63;2.03;;;;;;;12.30;100.00;101089.41;4975531;28;20143;-76
2023/07/04 04:15:30;;;;;;;6.97;2.40;;;;;;;12.32;100.00;101085.13;4993849;28;20047;-74
2023/07/04 04:17:57;;;;;;;6.25;2.05;;;;;;;12.32;100.00;101087.03;4993778;28;20500;-76
2023/07/04 04:20:25;;;;;;;6.35;2.33;;;;;;;12.31;100.00;101090.91;4993704;28;20117;-76
2023/07/04 04:22:51;;;;;;;4.88;2.17;;;;;;;12.31;100.00;101091.63;4976431;28;20090;-76
2023/07/04 04:25:18;;;;;;;4.15;2.58;;;;;;;12.32;100.00;101090.44;4975805;28;20055;-76
2023/07/04 04:27:46;;;;;;;7.75;2.47;;;;;;;12.35;100.00;101094.16;4993381;28;20050;-76
2023/07/04 04:30:13;;;;;;;4.07;2.45;;;;;;;12.38;100.00;101089.88;4993952;28;20046;-76
2023/07/04 04:32:41;;;;;;;5.60;2.15;;;;;;;12.41;100.00;101092.38;4993258;28;20475;-76
2023/07/04 04:35:08;;;;;;;4.63;2.60;;;;;;;12.45;100.00;101092.22;4992336;28;20053;-74
2023/07/04 04:37:35;;;;;;;6.57;2.45;;;;;;;12.45;100.00;101090.31;4993430;28;20047;-76
2023/07/04 04:40:04;;;;;;;5.65;2.35;;;;;;;12.47;100.00;101092.53;4991861;28;20051;-74
2023/07/04 04:42:34;;;;;;;5.10;2.47;;;;;;;12.51;100.00;101095.81;4991193;28;20570;-75
2023/07/04 04:45:01;;;;;;;8.10;2.40;;;;;;;12.55;100.00;101102.50;4993438;28;20046;-75
2023/07/04 04:47:32;;;;;;;5.50;2.35;;;;;;;12.55;100.00;101097.16;4992992;28;20066;-75
2023/07/04 04:50:02;;;;;;;4.07;2.42;;;;;;;12.57;100.00;101102.03;4993469;28;20102;-75
2023/07/04 04:52:31;;;;;;;3.35;2.17;;;;;;;12.61;100.00;101099.97;4992891;28;20062;-76
2023/07/04 04:55:00;;;;;;;7.82;2.50;;;;;;;12.65;100.00;101100.56;4975362;28;20043;-76
2023/07/04 04:57:29;;;;;;;7.97;2.58;;;;;;;12.67;100.00;101106.22;4992813;28;20039;-76
2023/07/04 04:59:59;;;;;;;9.18;2.53;;;;;;;12.72;100.00;101110.22;4992908;28;20105;-75
2023/07/04 05:02:28;;;;;;;6.18;2.45;;;;;;;12.73;100.00;101109.03;4992673;28;20049;-75
2023/07/04 05:04:54;;;;;;;7.63;2.80;;;;;;;12.76;100.00;101111.56;4992991;28;20605;-75
2023/07/04 05:07:24;;;;;;;9.02;2.22;;;;;;;12.81;100.00;101121.63;4992968;28;20046;-76
2023/07/04 05:09:53;;;;;;;6.82;2.22;;;;;;;12.84;100.00;101110.06;4992380;28;20047;-76
2023/07/04 05:12:20;;;;;;;5.43;2.30;;;;;;;12.87;100.00;101111.84;4974445;28;20060;-75
2023/07/04 05:14:46;;;;;;;5.22;2.40;;;;;;;12.91;100.00;101117.78;4993132;28;20051;-76
2023/07/04 05:17:13;;;;;;;6.63;2.20;;;;;;;12.97;100.00;101107.97;4993184;28;20127;-76
2023/07/04 05:19:40;;;;;;;15.27;2.78;;;;;;;13.07;100.00;101122.09;4993139;28;20054;-75
2023/07/04 05:22:06;;;;;;;8.77;2.65;;;;;;;13.27;100.00;101124.31;4959187;28;20397;-75
2023/07/04 05:24:33;;;;;;;8.85;2.53;;;;;;;13.51;100.00;101121.75;4992335;28;20084;-76
2023/07/04 05:26:59;;;;;;;6.18;2.30;;;;;;;13.65;100.00;101127.19;4992303;28;20126;-76
2023/07/04 05:29:26;;;;;;;5.85;2.20;;;;;;;13.71;100.00;101123.91;4974808;28;20134;-76
2023/07/04 05:31:52;;;;;;;10.18;2.38;;;;;;;13.70;99.03;101125.84;4992569;28;20126;-76
2023/07/04 05:34:19;;;;;;;7.15;1.98;;;;;;;13.73;99.35;101129.53;4992502;28;20054;-76
2023/07/04 05:36:46;;;;;;;4.53;2.17;;;;;;;14.02;100.00;101133.13;4992910;28;20555;-77
2023/07/04 05:39:12;;;;;;;5.65;2.40;;;;;;;14.75;94.55;101128.56;4992937;28;20475;-76
2023/07/04 05:41:39;;;;;;;8.45;2.42;;;;;;;14.58;94.49;101125.56;4992657;28;20059;-76
2023/07/04 05:44:08;;;;;;;9.10;2.70;;;;;;;14.41;95.67;101140.50;4993390;28;20090;-78
2023/07/04 05:46:35;;;;;;;13.13;2.85;;;;;;;14.65;95.46;101133.25;4992290;28;20049;-76
2023/07/04 05:49:04;;;;;;;7.25;2.08;;;;;;;14.87;93.27;101130.97;4993319;28;20440;-75
2023/07/04 05:51:31;;;;;;;6.88;2.15;;;;;;;15.06;93.35;101136.94;4992591;28;20500;-76
2023/07/04 05:53:57;;;;;;;6.85;2.35;;;;;;;14.98;92.65;101133.88;4992695;28;20579;-76
2023/07/04 05:56:30;;;;;;;6.95;2.25;;;;;;;15.60;92.20;101148.34;4992824;28;20131;-75
2023/07/04 05:58:59;;;;;;;6.32;2.22;;;;;;;15.76;89.93;101147.13;4993194;28;20069;-75
2023/07/04 06:01:38;;;;;;;10.45;2.00;;;;;;;15.50;90.13;101153.06;4992728;28;20042;-76
2023/07/04 06:04:06;;;;;;;5.78;2.28;;;;;;;15.55;91.95;101155.09;4993038;28;20149;-75
2023/07/04 06:06:36;;;;;;;9.10;2.30;;;;;;;16.04;87.95;101152.91;4992161;28;20078;-74
2023/07/04 06:09:06;;;;;;;4.43;2.13;;;;;;;16.10;87.69;101156.41;4992742;28;20046;-73
2023/07/04 06:11:36;;;;;;;3.63;2.30;;;;;;;16.31;88.26;101156.00;4992295;28;20575;-75
2023/07/04 06:14:03;;;;;;;10.23;2.60;;;;;;;16.30;86.73;101161.81;4992986;28;20043;-75
2023/07/04 06:16:30;;;;;;;8.35;2.70;;;;;;;16.15;86.55;101159.19;4992448;28;20147;-75
2023/07/04 06:18:57;;;;;;;7.47;2.30;;;;;;;16.37;87.21;101158.75;4993019;28;20047;-75
2023/07/04 06:21:24;;;;;;;6.35;2.70;;;;;;;16.71;86.23;101167.25;4991316;28;20054;-75
2023/07/04 06:24:08;;;;;;;8.93;2.55;;;;;;;16.79;83.95;101157.56;4991834;28;20546;-75
2023/07/04 06:26:34;;;;;;;8.00;2.13;;;;;;;16.87;84.58;101162.03;4992437;28;20130;-75
2023/07/04 06:29:01;;;;;;;12.60;2.63;;;;;;;16.84;84.41;101157.59;4992816;28;20047;-75
2023/07/04 06:31:28;;;;;;;10.45;2.40;;;;;;;16.91;85.87;101162.56;4992170;28;20142;-74
2023/07/04 06:33:55;;;;;;;12.15;2.80;;;;;;;17.09;84.34;101160.81;4992743;28;20520;-74
2023/07/04 06:36:23;;;;;;;8.85;2.78;;;;;;;16.96;84.50;101163.84;4988873;28;20058;-74
2023/07/04 06:38:50;;;;;;;7.32;2.65;;;;;;;16.77;85.73;101168.78;4992238;28;20054;-74
2023/07/04 06:41:17;;;;;;;10.10;2.83;;;;;;;16.63;86.05;101169.56;4992565;28;20488;-74
2023/07/04 06:43:47;;;;;;;6.10;2.30;;;;;;;16.51;86.97;101166.00;4992643;28;20483;-74
2023/07/04 06:46:17;;;;;;;13.90;3.22;;;;;;;16.41;86.98;101172.69;4992127;28;20526;-74
2023/07/04 06:48:48;;;;;;;9.10;2.85;;;;;;;16.50;87.75;101177.22;4975182;28;20548;-74
2023/07/04 06:51:16;;;;;;;10.52;2.65;;;;;;;16.49;87.57;101175.72;4992057;28;20047;-74
2023/07/04 06:53:44;;;;;;;10.13;2.97;;;;;;;16.45;88.26;101170.56;4992343;28;20504;-74
2023/07/04 06:56:22;;;;;;;8.82;2.45;;;;;;;16.49;88.59;101187.22;4975164;28;20140;-74
2023/07/04 06:58:52;;;;;;;8.82;2.90;;;;;;;16.51;88.52;101184.06;4994792;28;20054;-74
2023/07/04 07:01:22;;;;;;;7.38;2.85;;;;;;;16.65;88.02;101180.63;4995490;28;20046;-74
2023/07/04 07:03:49;;;;;;;11.32;2.65;;;;;;;16.72;88.01;101185.59;4995369;28;20043;-74
2023/07/04 07:06:16;;;;;;;13.25;2.92;;;;;;;16.89;88.11;101186.50;4995219;28;20046;-75
2023/07/04 07:08:43;;;;;;;6.10;2.38;;;;;;;17.04;86.25;101188.38;4975983;28;20527;-74
2023/07/04 07:11:15;;;;;;;13.50;2.58;;;;;;;17.29;83.17;101190.34;4990195;28;20057;-74
2023/07/04 07:13:44;;;;;;;8.18;2.38;;;;;;;17.53;83.01;101185.44;4976876;28;20520;-75
2023/07/04 07:16:17;;;;;;;9.75;2.00;;;;;;;17.59;83.09;101194.28;4994938;28;20070;-75
2023/07/04 07:18:46;;;;;;;13.35;2.35;;;;;;;17.48;82.45;101196.16;4994862;28;20043;-80
2023/07/04 07:21:18;;;;;;;7.35;2.67;;;;;;;17.31;83.01;101182.53;4995181;28;20162;-79
2023/07/04 07:23:46;;;;;;;12.85;3.00;;;;;;;17.20;82.88;101179.72;4977412;28;20088;-79
2023/07/04 07:26:17;;;;;;;11.45;2.90;;;;;;;17.03;82.88;101181.53;4977773;28;20055;-79
2023/07/04 07:28:48;;;;;;;9.48;2.58;;;;;;;16.90;83.57;101184.56;4995727;28;20071;-80
2023/07/04 07:31:23;;;;;;;8.80;2.33;;;;;;;16.71;83.75;101192.19;4995311;28;20121;-80
2023/07/04 07:33:53;;;;;;;10.18;2.08;;;;;;;16.62;85.02;101193.00;4977374;28;20142;-80
2023/07/04 07:36:25;;;;;;;14.15;2.63;;;;;;;16.53;84.80;101201.19;4976574;28;20496;-76
2023/07/04 07:38:54;;;;;;;13.68;2.83;;;;;;;16.38;85.95;101205.91;4993692;28;20051;-76
2023/07/04 07:41:30;;;;;;;5.72;2.45;;;;;;;16.36;87.41;101207.56;4995002;28;20047;-78
2023/07/04 07:43:57;;;;;;;6.90;2.40;;;;;;;16.32;86.94;101210.47;4995255;28;20133;-78
2023/07/04 07:46:24;;;;;;;13.57;2.20;;;;;;;16.25;88.00;101202.78;4994427;28;20051;-75
2023/07/04 07:48:51;;;;;;;12.23;3.00;;;;;;;16.19;88.99;101207.34;4994954;28;20500;-77
2023/07/04 07:51:19;;;;;;;9.65;2.67;;;;;;;16.23;89.93;101222.06;4994952;28;20053;-78
2023/07/04 07:53:48;;;;;;;10.30;2.40;;;;;;;16.25;89.25;101222.31;4995026;28;20142;-79
2023/07/04 07:56:18;;;;;;;10.65;2.50;;;;;;;16.30;89.54;101213.59;4994798;28;20485;-79
2023/07/04 07:58:45;;;;;;;5.68;2.25;;;;;;;16.36;90.48;101207.56;4994815;28;20069;-78
2023/07/04 08:01:21;;;;;;;9.55;2.80;;;;;;;16.41;89.86;101210.31;4995033;28;20069;-80
2023/07/04 08:03:48;;;;;;;10.85;2.83;;;;;;;16.46;88.15;101212.34;4976608;28;20051;-78
2023/07/04 08:06:42;;;;;;;9.18;2.75;;;;;;;16.40;89.10;101218.84;4993314;28;20053;-80
2023/07/04 08:09:12;;;;;;;12.18;2.38;;;;;;;16.42;89.61;101225.22;4994678;28;20551;-77
2023/07/04 08:11:39;;;;;;;16.92;3.17;;;;;;;16.45;88.89;101218.19;4993644;28;20133;-78
2023/07/04 08:14:07;;;;;;;12.55;2.47;;;;;;;16.52;88.65;101212.41;4994829;28;20539;-88
2023/07/04 08:16:41;;;;;;;8.57;2.50;;;;;;;16.60;87.68;101211.56;4994238;28;20111;-78
2023/07/04 08:19:08;;;;;;;6.55;2.45;;;;;;;16.73;86.87;101197.81;4976833;28;20106;-77
2023/07/04 08:21:34;;;;;;;8.20;2.22;;;;;;;16.90;87.85;101214.88;4994262;28;20054;-77
2023/07/04 08:24:01;;;;;;;9.15;2.25;;;;;;;16.90;86.69;101217.56;4976959;28;20043;-75
2023/07/04 08:26:27;;;;;;;8.55;2.80;;;;;;;16.91;86.27;101210.25;4994218;28;20039;-75
2023/07/04 08:28:55;;;;;;;12.77;2.78;;;;;;;16.88;85.41;101205.81;4994383;28;20464;-75
2023/07/04 08:31:23;;;;;;;9.88;2.42;;;;;;;17.04;86.83;101217.97;4994102;28;20047;-76
2023/07/04 08:33:50;;;;;;;11.38;2.35;;;;;;;17.04;87.25;101231.41;4993895;28;20047;-75
2023/07/04 08:36:17;;;;;;;9.93;2.88;;;;;;;17.14;87.46;101217.34;4994529;28;20054;-76
2023/07/04 08:38:47;;;;;;;6.80;2.50;;;;;;;17.31;87.93;101225.59;4994335;28;20042;-78
2023/07/04 08:41:26;;;;;;;6.63;2.88;;;;;;;17.43;85.06;101223.75;4976767;28;20046;-78
2023/07/04 08:44:02;;;;;;;11.20;2.47;;;;;;;17.39;82.49;101220.53;4976387;28;20215;-78
2023/07/04 08:46:41;;;;;;;7.72;2.17;;;;;;;17.55;83.62;101228.75;4975705;28;20047;-77
2023/07/04 08:49:23;;;;;;;13.52;2.53;;;;;;;17.87;81.55;101234.19;4993561;28;20098;-78
2023/07/04 08:51:54;;;;;;;;;;;;;;;18.07;81.96;101234.09;4994890;28;20512;-77
2023/07/04 08:54:20;;;;;;;3.77;1.90;;;;;;;18.30;81.57;101240.38;4993940;28;20323;-77
2023/07/04 08:56:50;;;;;;;7.65;2.28;;;;;;;18.41;77.86;101243.13;4994394;28;20270;-77
2023/07/04 08:59:24;;;;;;;11.50;2.85;;;;;;;18.46;77.64;101242.41;4994294;28;20051;-78
2023/07/04 09:02:16;;;;;;;8.57;2.42;;;;;;;18.68;77.87;101249.19;4993566;28;20042;-77
2023/07/04 09:05:04;;;;;;;11.32;2.95;;;;;;;18.47;75.32;101243.88;4993837;28;20087;-78
2023/07/04 09:07:50;;;;;;;14.07;2.35;;;;;;;18.59;75.77;101244.69;4993998;28;20047;-77
2023/07/04 09:10:24;;;;;;;7.50;2.13;;;;;;;18.74;72.18;101247.25;4994301;28;20125;-78
2023/07/04 09:12:52;;;;;;;7.72;2.55;;;;;;;18.82;69.80;101250.94;4993749;28;20069;-77
2023/07/04 09:15:34;;;;;;;7.28;2.17;;;;;;;18.77;69.29;101255.13;4993782;28;20051;-77
2023/07/04 09:18:09;;;;;;;11.23;2.53;;;;;;;18.73;69.47;101257.31;4993568;28;20049;-78
2023/07/04 09:20:46;;;;;;;5.43;2.05;;;;;;;18.76;68.56;101252.91;4992919;28;20039;-77
2023/07/04 09:23:19;;;;;;;5.45;2.30;;;;;;;18.97;67.70;101254.94;4994030;28;20042;-78
2023/07/04 09:25:46;;;;;;;7.47;2.67;;;;;;;19.14;65.44;101262.38;4994157;28;20174;-77
2023/07/04 09:28:13;;;;;;;7.07;2.75;;;;;;;19.29;69.35;101254.78;4993797;28;20043;-78
2023/07/04 09:30:39;;;;;;;8.05;2.53;;;;;;;19.39;68.28;101258.00;4992892;28;20507;-77
2023/07/04 09:33:06;;;;;;;9.30;3.05;;;;;;;19.37;68.05;101255.78;4993541;28;20426;-78
2023/07/04 09:35:33;;;;;;;9.48;2.63;;;;;;;19.42;69.48;101260.47;4993460;28;20439;-78
2023/07/04 09:38:02;;;;;;;8.50;2.72;;;;;;;19.27;69.61;101257.97;4993521;28;20428;-78
2023/07/04 09:40:50;;;;;;;8.32;2.63;;;;;;;19.29;66.79;101266.31;4993333;28;20121;-78
2023/07/04 09:43:32;;;;;;;7.03;2.45;;;;;;;19.13;66.02;101263.59;4993568;28;20046;-77
2023/07/04 09:46:27;;;;;;;7.53;2.83;;;;;;;18.89;65.90;101272.81;4993364;28;20311;-78
2023/07/04 09:49:15;;;;;;;6.10;2.40;;;;;;;18.63;66.29;101266.81;4993609;28;20047;-78
2023/07/04 09:51:42;;;;;;;8.32;2.33;;;;;;;18.60;66.91;101267.75;4992975;28;20049;-78
2023/07/04 09:54:14;;;;;;;5.43;2.65;;;;;;;18.63;65.71;101274.91;4993072;28;20487;-78
2023/07/04 09:56:41;;;;;;;7.63;2.40;;;;;;;18.61;64.42;101271.94;4993084;28;20047;-78
2023/07/04 09:59:27;;;;;;;6.85;2.30;;;;;;;18.70;63.15;101269.06;4993301;28;20038;-78
2023/07/04 10:02:11;;;;;;;9.85;2.22;;;;;;;18.93;62.90;101276.00;4976119;28;20125;-78
2023/07/04 10:04:40;;;;;;;7.18;2.50;;;;;;;18.93;61.60;101276.00;4993232;28;20051;-77
2023/07/04 10:07:15;;;;;;;5.40;1.92;;;;;;;19.06;61.34;101280.25;4993200;28;20051;-76
2023/07/04 10:09:59;;;;;;;9.40;2.83;;;;;;;19.15;62.66;101277.34;4975256;28;20126;-74
2023/07/04 10:12:30;;;;;;;5.30;2.28;;;;;;;19.31;61.05;101282.75;4992235;28;20495;-76
2023/07/04 10:15:00;;;;;;;5.95;2.50;;;;;;;19.50;61.37;101285.75;4992924;28;20126;-74
2023/07/04 10:17:32;;;;;;;5.90;2.03;;;;;;;19.50;59.07;101285.75;4992941;28;20050;-76
2023/07/04 10:20:08;;;;;;;7.03;2.83;;;;;;;19.52;59.81;101285.31;4993247;28;20042;-78
2023/07/04 10:22:41;;;;;;;6.35;2.00;;;;;;;19.57;57.14;101287.28;4975305;28;20504;-76
2023/07/04 10:25:19;;;;;;;10.25;2.55;;;;;;;19.50;58.30;101293.13;4993049;28;20083;-76
2023/07/04 10:27:52;;;;;;;4.60;2.05;;;;;;;19.52;58.84;101290.69;4975264;28;20082;-77
2023/07/04 10:30:24;;;;;;;6.60;2.15;;;;;;;19.46;57.58;101285.25;4992507;28;20047;-76
2023/07/04 10:33:03;;;;;;;6.93;2.45;;;;;;;19.35;57.05;101290.63;4995799;28;20053;-76
2023/07/04 10:35:34;;;;;;;5.78;1.83;;;;;;;19.19;57.85;101299.44;4978024;28;20137;-76
2023/07/04 10:38:35;;;;;;;5.65;2.00;;;;;;;19.14;59.38;101297.44;4996831;28;20130;-74
2023/07/04 10:41:29;;;;;;;5.38;2.17;;;;;;;19.04;59.30;101296.16;4996515;28;20507;-76
2023/07/04 10:44:00;;;;;;;6.32;2.25;;;;;;;18.86;58.41;101300.75;4961982;28;20150;-76
2023/07/04 10:46:30;;;;;;;5.78;2.00;;;;;;;18.78;57.82;101307.84;4995472;28;20046;-75
2023/07/04 10:49:04;;;;;;;5.85;2.25;;;;;;;18.87;58.94;101306.88;4995967;28;20043;-75
2023/07/04 10:51:36;;;;;;;6.50;2.45;;;;;;;18.76;56.46;101304.88;4978617;28;20071;-74
2023/07/04 10:54:07;;;;;;;8.93;2.60;;;;;;;18.67;57.54;101310.47;4978460;28;20081;-75
2023/07/04 10:56:36;;;;;;;10.00;2.05;;;;;;;18.61;56.80;101299.66;4978595;28;20487;-77
2023/07/04 10:59:16;;;;;;;5.68;1.85;;;;;;;18.69;56.98;101299.19;4995680;28;20134;-75
2023/07/04 11:01:59;;;;;;;4.97;2.20;;;;;;;18.82;56.19;101307.59;4994450;28;20114;-78
2023/07/04 11:04:35;;;;;;;9.90;2.58;;;;;;;19.17;56.96;101308.00;4996190;28;20118;-78
2023/07/04 11:07:22;;;;;;;6.97;2.00;;;;;;;19.55;55.88;101309.38;4996365;28;20047;-78
2023/07/04 11:09:54;;;;;;;6.65;2.03;;;;;;;19.64;53.25;101314.50;4996095;28;20047;-78
2023/07/04 11:12:26;;;;;;;4.38;2.00;;;;;;;19.84;53.33;101302.78;4995295;28;20118;-78
2023/07/04 11:15:00;;;;;;;7.10;2.13;;;;;;;20.22;53.79;101300.56;4995953;28;20050;-78
2023/07/04 11:17:30;;;;;;;4.90;2.13;;;;;;;20.24;52.34;101300.78;4995813;28;20055;-79
2023/07/04 11:20:12;;;;;;;5.25;2.15;;;;;;;20.26;50.82;101301.03;4995887;28;20105;-78
2023/07/04 11:22:50;;;;;;;10.80;2.22;;;;;;;20.20;51.11;101297.59;4994579;28;20114;-78
2023/07/04 11:25:53;;;;;;;6.47;2.08;;;;;;;20.20;50.33;101290.22;4993996;28;20054;-78
2023/07/04 11:28:41;;;;;;;7.05;2.40;;;;;;;20.16;51.48;101299.81;4993870;28;20497;-78
2023/07/04 11:31:07;;;;;;;6.13;1.98;;;;;;;20.16;52.09;101291.72;4994563;28;20531;-79
2023/07/04 11:33:44;;;;;;;5.20;2.15;;;;;;;20.25;51.81;101296.88;4976520;28;20479;-78
2023/07/04 11:36:29;;;;;;;8.27;2.03;;;;;;;20.46;51.21;101302.75;4995170;28;20051;-78
2023/07/04 11:39:34;;;;;;;9.95;2.47;;;;;;;20.63;51.75;101306.91;4996037;28;20046;-78